Time;durP1;ratioP1;P1;durP2;ratioP2;P2;SDS_P1;SDS_P2;PMS_P1;PMS_P2;Temp;Humidity;BMP_temperature;BMP_pressure;BME280_temperature;BME280_humidity;BME280_pressure;Samples;Min_cycle;Max_cycle;Signal;HPM_P1;HPM_P2
2022/08/10 00:02:44;;;;;;;;;4.50;4.00;;;;;24.15;41.41;101379.78;4995558;28;45424;-74
2022/08/10 00:05:09;;;;;;;;;11.25;7.00;;;;;24.12;41.32;101379.97;4994898;28;45664;-75
2022/08/10 00:07:35;;;;;;;;;7.25;7.25;;;;;24.05;41.18;101374.13;4995248;28;45340;-74
2022/08/10 00:10:00;;;;;;;;;7.50;5.75;;;;;24.05;41.79;101368.72;4993982;28;45366;-75
2022/08/10 00:12:26;;;;;;;;;7.25;7.25;;;;;24.01;41.12;101371.72;4995433;28;45491;-74
2022/08/10 00:14:51;;;;;;;;;6.25;6.25;;;;;23.94;41.62;101364.00;4995923;28;45508;-74
2022/08/10 00:17:16;;;;;;;;;6.00;6.00;;;;;23.97;41.55;101364.78;4995753;28;46107;-75
2022/08/10 00:19:42;;;;;;;;;5.00;5.00;;;;;23.90;41.68;101357.06;4995232;28;45419;-74
2022/08/10 00:22:07;;;;;;;;;6.00;6.00;;;;;23.86;41.69;101362.75;4994343;28;45942;-74
2022/08/10 00:24:32;;;;;;;;;6.00;6.00;;;;;23.87;41.83;101375.31;4995274;28;45593;-73
2022/08/10 00:26:58;;;;;;;;;6.75;6.75;;;;;23.82;41.97;101366.56;4992476;28;48599;-73
2022/08/10 00:29:23;;;;;;;;;7.00;5.00;;;;;23.77;41.96;101372.28;4994528;28;45460;-74
2022/08/10 00:31:49;;;;;;;;;5.00;5.00;;;;;23.72;41.77;101367.16;4995151;28;45405;-74
2022/08/10 00:34:14;;;;;;;;;5.25;5.25;;;;;23.74;41.89;101380.56;4995827;28;45371;-75
2022/08/10 00:36:39;;;;;;;;;5.75;5.75;;;;;23.69;41.91;101372.75;4995162;28;45422;-75
2022/08/10 00:39:05;;;;;;;;;6.25;6.25;;;;;23.71;41.89;101369.97;4993127;28;45417;-74
2022/08/10 00:41:30;;;;;;;;;8.00;5.50;;;;;23.66;42.43;101374.78;5010830;28;45316;-73
2022/08/10 00:43:55;;;;;;;;;7.25;6.25;;;;;23.65;42.39;101364.94;4995699;28;45497;-74
2022/08/10 00:46:21;;;;;;;;;6.75;5.75;;;;;23.59;42.30;101359.00;4995194;28;45434;-74
2022/08/10 00:48:46;;;;;;;;;6.75;6.75;;;;;23.58;42.20;101359.94;4985775;28;45427;-73
2022/08/10 00:51:12;;;;;;;;;5.25;5.25;;;;;23.51;42.79;101361.28;4995176;28;45370;-75
2022/08/10 00:53:37;;;;;;;;;6.00;6.00;;;;;23.44;42.83;101356.38;4994988;28;45498;-74
2022/08/10 00:56:03;;;;;;;;;6.00;5.50;;;;;23.44;42.96;101359.06;4994541;28;45381;-74
2022/08/10 00:58:28;;;;;;;;;6.00;5.50;;;;;23.40;42.67;101358.41;4984401;28;45549;-73
2022/08/10 01:00:54;;;;;;;;;7.00;6.00;;;;;23.39;42.80;101353.94;4983791;28;45460;-74
2022/08/10 01:03:19;;;;;;;;;6.75;5.50;;;;;23.32;42.82;101357.97;4975870;28;45392;-75
2022/08/10 01:06:08;;;;;;;;;4.50;4.50;;;;;23.36;42.77;101362.22;4975037;28;46169;-73
2022/08/10 01:08:50;;;;;;;;;6.50;6.25;;;;;23.32;43.13;101357.97;4978168;28;45772;-75
2022/08/10 01:11:30;;;;;;;;;7.50;5.75;;;;;23.33;43.15;101359.72;4987984;28;45352;-74
2022/08/10 01:14:08;;;;;;;;;5.00;5.00;;;;;23.30;43.04;101359.91;4995066;28;45601;-74
2022/08/10 01:16:43;;;;;;;;;6.00;6.00;;;;;23.24;42.98;101356.66;4993972;28;46117;-73
2022/08/10 01:19:27;;;;;;;;;6.00;5.00;;;;;23.30;42.81;101365.31;4993938;28;45394;-74
2022/08/10 01:22:30;;;;;;;;;8.25;7.00;;;;;23.23;43.19;101360.28;4994830;28;45567;-74
2022/08/10 01:25:13;;;;;;;;;6.75;6.00;;;;;23.20;43.24;101360.47;4993599;28;45562;-74
2022/08/10 01:28:16;;;;;;;;;6.75;6.00;;;;;23.16;43.13;101358.94;4993812;28;46760;-74
2022/08/10 01:30:45;;;;;;;;;7.25;7.25;;;;;23.11;43.36;101355.66;4990240;28;46227;-75
2022/08/10 01:33:23;;;;;;;;;7.00;7.00;;;;;23.11;43.10;101361.03;4984877;28;45454;-74
2022/08/10 01:35:58;;;;;;;;;6.00;6.00;;;;;23.10;43.13;101359.28;4998836;28;45493;-74
2022/08/10 01:38:28;;;;;;;;;7.50;7.50;;;;;23.10;43.01;101358.44;4984922;28;46303;-73
2022/08/10 01:41:00;;;;;;;;;6.50;6.00;;;;;23.04;43.26;101349.72;4997497;28;45358;-74
2022/08/10 01:43:29;;;;;;;;;9.00;7.50;;;;;22.87;43.66;101321.09;4997988;28;45380;-75
2022/08/10 01:45:59;;;;;;;;;7.25;6.00;;;;;23.04;43.43;101349.72;4998103;28;45552;-75
2022/08/10 01:48:30;;;;;;;;;10.75;7.00;;;;;23.02;43.44;101350.78;4995929;28;45395;-74
2022/08/10 01:51:15;;;;;;;;;5.75;4.75;;;;;22.96;43.72;101356.56;4997499;28;45441;-75
2022/08/10 01:53:45;;;;;;;;;7.00;7.00;;;;;22.92;43.61;101349.59;4996110;28;45425;-74
2022/08/10 01:56:14;;;;;;;;;6.00;6.00;;;;;22.87;43.57;101350.72;4996951;28;45265;-74
2022/08/10 01:58:41;;;;;;;;;5.75;5.50;;;;;22.87;43.34;101345.34;4997665;28;45427;-74
2022/08/10 02:01:09;;;;;;;;;7.50;7.50;;;;;22.87;43.39;101342.66;4997267;28;45487;-73
2022/08/10 02:03:36;;;;;;;;;2.00;1.00;;;;;22.86;43.51;101340.91;4997335;28;45378;-74
2022/08/10 02:06:06;;;;;;;;;5.00;4.75;;;;;22.88;43.66;101343.50;4988213;28;45634;-74
2022/08/10 02:08:33;;;;;;;;;7.25;6.00;;;;;22.85;43.30;101341.00;4977924;28;45514;-73
2022/08/10 02:11:01;;;;;;;;;8.00;7.00;;;;;22.82;43.53;101333.97;4977416;28;45360;-75
2022/08/10 02:13:27;;;;;;;;;7.00;7.00;;;;;22.79;43.64;101330.59;4978280;28;45419;-74
2022/08/10 02:15:54;;;;;;;;;6.00;6.00;;;;;22.76;44.29;101333.47;4986651;28;45421;-74
2022/08/10 02:18:22;;;;;;;;;5.00;5.00;;;;;22.74;44.09;101335.38;4985715;28;46326;-73
2022/08/10 02:20:50;;;;;;;;;5.25;5.25;;;;;22.65;44.21;101328.72;4997037;28;45426;-74
2022/08/10 02:23:26;;;;;;;;;5.50;5.50;;;;;22.68;44.54;101347.38;4997532;28;45312;-74
2022/08/10 02:25:54;;;;;;;;;6.50;6.50;;;;;22.63;44.19;101344.97;4995695;28;45482;-75
2022/08/10 02:28:23;;;;;;;;;6.00;6.00;;;;;22.60;44.50;101344.28;4997053;28;45457;-75
2022/08/10 02:30:51;;;;;;;;;5.25;4.50;;;;;22.59;44.43;101356.00;4997460;28;45463;-73
2022/08/10 02:33:21;;;;;;;;;5.50;4.50;;;;;22.59;44.51;101347.94;4995931;28;45811;-74
2022/08/10 02:35:49;;;;;;;;;7.50;6.25;;;;;22.57;44.67;101345.31;4994916;28;45571;-74
2022/08/10 02:38:19;;;;;;;;;5.75;5.50;;;;;22.56;44.32;101338.19;4995925;28;45366;-74
2022/08/10 02:40:49;;;;;;;;;8.75;7.75;;;;;22.53;44.43;101352.72;4996826;28;45395;-74
2022/08/10 02:43:27;;;;;;;;;5.50;5.50;;;;;22.49;44.37;101348.47;4996392;28;45442;-73
2022/08/10 02:45:59;;;;;;;;;6.25;5.75;;;;;22.49;44.68;101353.00;4978229;28;45359;-74
2022/08/10 02:48:37;;;;;;;;;5.75;5.75;;;;;22.46;44.81;101345.94;4996701;28;45546;-74
2022/08/10 02:51:10;;;;;;;;;5.50;5.50;;;;;22.43;44.92;101347.97;4996028;28;45433;-74
2022/08/10 02:53:46;;;;;;;;;6.50;6.50;;;;;22.40;45.09;101357.09;4995589;28;45525;-75
2022/08/10 02:56:27;;;;;;;;;3.00;3.00;;;;;22.34;45.15;101355.59;4994969;28;45492;-74
2022/08/10 02:59:24;;;;;;;;;6.00;6.00;;;;;22.30;44.95;101358.53;4996732;28;46336;-75
2022/08/10 03:01:54;;;;;;;;;6.75;6.75;;;;;22.28;45.27;101349.69;4897590;29;45372;-74
2022/08/10 03:04:26;;;;;;;;;7.25;7.25;;;;;22.29;45.42;101360.34;4897152;29;45514;-73
2022/08/10 03:06:59;;;;;;;;;6.50;6.50;;;;;22.26;45.25;101360.53;4896460;29;45485;-73
2022/08/10 03:09:27;;;;;;;;;6.75;5.75;;;;;22.19;45.31;101354.63;4897723;29;45411;-74
2022/08/10 03:11:54;;;;;;;;;7.00;6.00;;;;;22.20;45.46;101363.59;4897927;29;45412;-74
2022/08/10 03:14:21;;;;;;;;;7.25;7.25;;;;;22.16;45.78;101357.47;4897417;29;45564;-74
2022/08/10 03:16:49;;;;;;;;;8.75;7.00;;;;;22.11;45.34;101348.81;4896276;29;45554;-75
2022/08/10 03:19:19;;;;;;;;;8.75;6.25;;;;;22.14;45.71;101355.84;4896293;29;45419;-73
2022/08/10 03:21:46;;;;;;;;;5.00;5.00;;;;;22.07;45.90;101341.84;4897244;29;45466;-74
2022/08/10 03:24:13;;;;;;;;;5.50;5.50;;;;;22.06;45.80;101356.28;4896599;29;45593;-75
2022/08/10 03:26:39;;;;;;;;;9.25;7.00;;;;;22.04;46.04;101347.41;4896116;29;45602;-74
2022/08/10 03:29:08;;;;;;;;;6.00;5.25;;;;;22.01;45.94;101342.19;4897306;29;46253;-75
2022/08/10 03:31:34;;;;;;;;;6.50;5.75;;;;;22.02;45.93;101338.56;4897022;29;45826;-75
2022/08/10 03:34:01;;;;;;;;;5.50;5.00;;;;;21.94;46.13;101328.22;4896196;29;45506;-74
2022/08/10 03:36:27;;;;;;;;;6.50;6.00;;;;;21.97;46.20;101335.25;4878781;29;45514;-74
2022/08/10 03:38:53;;;;;;;;;6.00;6.00;;;;;21.93;46.04;101349.84;4940585;28;46052;-74
2022/08/10 03:41:35;;;;;;;;;6.00;6.00;;;;;21.92;45.98;101354.34;4986572;28;45542;-75
2022/08/10 03:44:02;;;;;;;;;8.00;5.75;;;;;21.86;46.12;101340.38;4988015;28;45454;-74
2022/08/10 03:46:29;;;;;;;;;5.00;5.00;;;;;21.87;46.42;101351.03;4996373;28;45561;-74
2022/08/10 03:48:59;;;;;;;;;6.25;6.25;;;;;21.87;46.46;101355.56;4995545;28;46823;-75
2022/08/10 03:51:25;;;;;;;;;9.50;7.00;;;;;21.82;46.25;101354.00;4996014;28;45505;-74
2022/08/10 03:53:51;;;;;;;;;5.25;5.25;;;;;21.80;46.32;101355.91;4992922;28;45343;-73
2022/08/10 03:56:17;;;;;;;;;6.00;5.50;;;;;21.75;46.59;101349.03;4994302;28;45413;-73
2022/08/10 03:58:43;;;;;;;;;5.25;5.00;;;;;21.74;46.41;101350.88;4995712;28;46170;-74
2022/08/10 04:01:09;;;;;;;;;5.25;5.25;;;;;21.74;47.03;101352.66;4995873;28;45369;-73
2022/08/10 04:03:35;;;;;;;;;5.75;5.00;;;;;21.70;46.70;101353.81;4994495;28;45384;-74
2022/08/10 04:06:01;;;;;;;;;4.00;3.00;;;;;21.68;46.88;101356.56;4994753;28;45619;-74
2022/08/10 04:08:27;;;;;;;;;6.50;6.50;;;;;21.64;46.94;101350.47;4995878;28;46294;-74
2022/08/10 04:10:52;;;;;;;;;5.75;5.75;;;;;21.59;47.00;101351.69;4995724;28;45398;-74
2022/08/10 04:13:17;;;;;;;;;6.00;5.00;;;;;21.51;46.95;101349.41;4986530;28;45812;-73
2022/08/10 04:15:43;;;;;;;;;6.00;6.00;;;;;21.51;47.06;101345.84;4993096;28;45473;-74
2022/08/10 04:18:08;;;;;;;;;6.25;4.50;;;;;21.44;47.30;101348.84;5009737;28;55511;-74
2022/08/10 04:20:43;;;;;;;;;5.75;5.50;;;;;21.46;47.29;101355.00;4995651;28;45582;-73
2022/08/10 04:23:14;;;;;;;;;6.50;4.50;;;;;21.48;47.13;101361.19;4994204;28;45367;-74
2022/08/10 04:25:40;;;;;;;;;4.00;4.00;;;;;21.39;47.30;101361.69;4992015;28;45754;-74
2022/08/10 04:28:07;;;;;;;;;5.50;5.50;;;;;21.39;47.71;101364.38;4994439;28;45420;-74
2022/08/10 04:30:35;;;;;;;;;4.00;4.00;;;;;21.36;47.46;101359.13;4995346;28;45365;-74
2022/08/10 04:33:03;;;;;;;;;6.00;6.00;;;;;21.38;47.50;101354.56;4990375;28;45386;-73
2022/08/10 04:35:29;;;;;;;;;4.00;4.00;;;;;21.37;47.80;101357.31;4990044;28;45502;-73
2022/08/10 04:37:56;;;;;;;;;5.50;4.25;;;;;21.38;47.72;101356.34;4995456;28;46152;-72
2022/08/10 04:40:22;;;;;;;;;9.50;6.25;;;;;21.39;47.60;101361.69;4994554;28;45586;-74
2022/08/10 04:42:47;;;;;;;;;4.50;4.50;;;;;21.38;47.69;101354.56;4992909;28;45368;-75
2022/08/10 04:45:13;;;;;;;;;6.00;6.00;;;;;21.51;47.48;101360.16;4987781;28;45646;-75
2022/08/10 04:47:39;;;;;;;;;5.00;5.00;;;;;21.67;47.26;101360.22;4994820;28;46079;-75
2022/08/10 04:50:05;;;;;;;;;6.75;6.75;;;;;21.81;46.98;101363.00;4994751;28;45390;-74
2022/08/10 04:52:30;;;;;;;;;4.00;4.00;;;;;21.95;46.81;101364.94;4995562;28;45410;-74
2022/08/10 04:54:56;;;;;;;;;4.75;4.75;;;;;22.13;45.83;101372.94;4993209;28;45380;-74
2022/08/10 04:57:21;;;;;;;;;7.50;6.00;;;;;22.36;45.73;101368.97;4994463;28;46037;-73
2022/08/10 04:59:47;;;;;;;;;4.50;4.50;;;;;22.61;45.10;101367.56;4995016;28;45388;-73
2022/08/10 05:02:13;;;;;;;;;7.00;7.00;;;;;22.92;44.67;101372.00;4994614;28;45416;-75
2022/08/10 05:04:38;;;;;;;;;4.75;3.50;;;;;23.37;43.76;101366.69;5009351;28;45557;-73
2022/08/10 05:07:12;;;;;;;;;4.50;4.50;;;;;23.80;43.68;101373.91;4995929;28;45439;-73
2022/08/10 05:09:39;;;;;;;;;5.00;3.25;;;;;24.14;42.86;101367.22;4993829;28;45446;-74
2022/08/10 05:12:05;;;;;;;;;3.50;3.25;;;;;24.49;41.95;101364.09;4993493;28;45395;-76
2022/08/10 05:14:30;;;;;;;;;3.25;3.25;;;;;24.90;40.72;101363.16;5007734;28;45555;-74
2022/08/10 05:16:56;;;;;;;;;3.00;3.00;;;;;25.31;39.67;101367.56;4994658;28;46081;-74
2022/08/10 05:19:21;;;;;;;;;3.00;3.00;;;;;25.58;39.40;101358.47;4993855;28;45340;-74
2022/08/10 05:21:47;;;;;;;;;5.00;2.75;;;;;25.97;38.56;101362.00;4994359;28;45864;-74
2022/08/10 05:24:12;;;;;;;;;3.00;2.00;;;;;26.37;38.43;101372.66;4993795;28;45562;-74
2022/08/10 05:26:37;;;;;;;;;2.00;2.00;;;;;26.80;37.29;101360.44;4994200;28;45684;-74
2022/08/10 05:29:03;;;;;;;;;2.50;2.25;;;;;27.10;36.82;101361.75;4993742;28;45451;-75
2022/08/10 05:31:28;;;;;;;;;4.25;3.75;;;;;27.50;36.12;101363.19;4994114;28;45408;-76
2022/08/10 05:33:54;;;;;;;;;2.50;2.50;;;;;27.72;35.67;101362.38;4994355;28;45485;-76
2022/08/10 05:36:19;;;;;;;;;6.00;5.00;;;;;28.05;35.03;101368.81;4993918;28;46157;-74
2022/08/10 05:38:47;;;;;;;;;2.50;2.50;;;;;28.45;34.32;101369.06;4981744;28;45483;-75
2022/08/10 05:41:14;;;;;;;;;4.00;4.00;;;;;28.83;34.14;101365.03;4995301;28;45415;-75
2022/08/10 05:43:40;;;;;;;;;3.00;2.75;;;;;29.19;32.80;101362.81;4994306;28;45368;-75
2022/08/10 05:46:05;;;;;;;;;6.50;5.00;;;;;29.56;32.53;101354.19;4993305;28;46275;-75
2022/08/10 05:48:32;;;;;;;;;3.25;3.25;;;;;30.03;31.42;101359.13;4988414;28;45493;-75
2022/08/10 05:50:57;;;;;;;;;4.00;2.75;;;;;30.44;31.23;101361.81;4991923;28;45467;-73
2022/08/10 05:53:23;;;;;;;;;3.00;3.00;;;;;30.73;30.54;101364.59;4994773;28;45536;-75
2022/08/10 05:55:48;;;;;;;;;3.00;3.00;;;;;31.17;30.30;101361.38;4992298;28;46469;-75
2022/08/10 05:58:14;;;;;;;;;6.25;5.50;;;;;31.47;29.96;101359.44;4985212;28;45521;-76
2022/08/10 06:00:41;;;;;;;;;4.50;3.25;;;;;31.68;28.88;101356.53;4979240;28;45719;-75
2022/08/10 06:03:09;;;;;;;;;5.00;4.00;;;;;31.83;29.07;101352.28;4982889;28;45502;-76
2022/08/10 06:05:38;;;;;;;;;4.00;4.00;;;;;32.02;28.54;101358.66;4982652;28;45497;-75
2022/08/10 06:08:11;;;;;;;;;5.50;5.00;;;;;32.31;28.17;101358.53;4978832;28;45583;-75
2022/08/10 06:10:39;;;;;;;;;4.75;3.50;;;;;32.60;27.89;101360.19;4978916;28;45618;-74
2022/08/10 06:15:54;;;;;;;;;4.75;3.00;;;;;32.93;27.35;101365.94;4990268;28;45679;-76
2022/08/10 06:18:19;;;;;;;;;4.50;4.50;;;;;33.01;27.20;101360.56;4988094;28;45385;-75
2022/08/10 06:20:45;;;;;;;;;3.00;3.00;;;;;33.27;26.92;101362.50;4984893;28;45462;-75
2022/08/10 06:23:11;;;;;;;;;4.00;3.00;;;;;33.47;26.27;101361.22;4985057;28;45344;-75
2022/08/10 06:25:37;;;;;;;;;7.00;6.00;;;;;33.73;26.38;101360.38;4987693;28;45383;-76
2022/08/10 06:28:05;;;;;;;;;6.00;6.00;;;;;33.93;25.36;101365.59;4989610;28;45388;-75
2022/08/10 06:30:34;;;;;;;;;5.00;5.00;;;;;34.26;25.66;101365.75;4980836;28;45440;-76
2022/08/10 06:33:01;;;;;;;;;6.25;5.25;;;;;34.44;25.79;101373.84;4983563;28;45569;-73
2022/08/10 06:35:31;;;;;;;;;5.00;5.00;;;;;34.62;25.36;101365.44;4993683;28;45393;-73
2022/08/10 06:37:59;;;;;;;;;6.50;6.50;;;;;34.72;24.88;101371.63;4979697;28;45489;-78
2022/08/10 06:40:28;;;;;;;;;5.25;5.25;;;;;34.91;25.10;101369.59;4984839;28;45570;-77
2022/08/10 06:42:57;;;;;;;;;6.50;4.75;;;;;35.02;24.29;101370.13;4990929;28;45522;-76
2022/08/10 06:45:28;;;;;;;;;5.25;5.25;;;;;35.41;25.10;101371.31;4985509;28;48241;-77
2022/08/10 06:48:03;;;;;;;;;7.75;7.75;;;;;35.57;23.62;101373.97;4987833;28;45409;-75
2022/08/10 06:50:37;;;;;;;;;7.50;5.25;;;;;35.86;23.21;101364.28;4988147;28;45410;-75
2022/08/10 06:53:06;;;;;;;;;6.00;5.00;;;;;35.93;22.87;101365.28;4984337;28;45617;-75
2022/08/10 06:55:33;;;;;;;;;8.50;6.25;;;;;36.14;23.01;101372.09;4985179;28;45462;-74
2022/08/10 06:58:01;;;;;;;;;5.75;5.75;;;;;36.32;22.80;101369.09;4988212;28;45660;-75
2022/08/10 07:00:28;;;;;;;;;6.25;5.25;;;;;36.60;23.10;101366.63;4981458;28;45397;-74
2022/08/10 07:02:56;;;;;;;;;5.25;5.25;;;;;36.92;22.74;101381.22;4988619;28;45365;-75
2022/08/10 07:05:26;;;;;;;;;7.50;6.00;;;;;36.96;22.23;101376.22;4985414;28;47136;-75
2022/08/10 07:07:55;;;;;;;;;5.75;5.75;;;;;36.98;22.13;101380.47;4991121;28;45434;-74
2022/08/10 07:10:24;;;;;;;;;5.25;5.25;;;;;37.19;22.15;101373.41;4987159;28;45562;-76
2022/08/10 07:12:51;;;;;;;;;5.50;5.00;;;;;37.23;22.02;101373.88;4989985;28;45336;-75
2022/08/10 07:15:18;;;;;;;;;5.00;5.00;;;;;37.73;22.23;101360.44;4980431;28;45408;-75
2022/08/10 07:17:45;;;;;;;;;5.75;4.50;;;;;37.97;21.53;101368.41;4981433;28;45341;-76
2022/08/10 07:20:17;;;;;;;;;7.25;7.25;;;;;38.17;20.75;101363.19;4985550;28;45577;-75
2022/08/10 07:22:50;;;;;;;;;8.00;7.00;;;;;38.31;21.16;101372.44;4984403;28;45301;-76
2022/08/10 07:25:19;;;;;;;;;3.75;3.75;;;;;38.66;21.03;101361.59;4985141;28;46374;-76
2022/08/10 07:27:46;;;;;;;;;6.75;5.75;;;;;38.92;20.58;101365.63;4988691;28;45473;-75
2022/08/10 07:30:12;;;;;;;;;6.50;6.50;;;;;38.87;20.00;101357.09;4978061;28;45573;-76
2022/08/10 07:32:40;;;;;;;;;7.00;6.00;;;;;38.87;20.44;101362.59;4974725;28;45511;-76
2022/08/10 07:35:08;;;;;;;;;6.00;5.50;;;;;39.12;20.31;101362.22;4975216;28;45355;-75
2022/08/10 07:37:35;;;;;;;;;7.75;7.75;;;;;39.35;20.25;101360.03;4986772;28;45752;-75
2022/08/10 07:40:03;;;;;;;;;6.25;5.50;;;;;39.49;19.65;101362.88;4988728;28;45483;-78
2022/08/10 07:42:31;;;;;;;;;7.50;6.50;;;;;39.62;19.80;101365.75;4990448;28;45431;-75
2022/08/10 07:44:58;;;;;;;;;3.25;3.25;;;;;39.62;19.78;101366.59;4987222;28;46657;-76
2022/08/10 07:47:30;;;;;;;;;7.00;6.00;;;;;39.45;19.39;101370.72;4990875;28;45422;-77
2022/08/10 07:50:04;;;;;;;;;6.75;6.75;;;;;39.83;18.74;101375.84;4991112;28;45358;-77
2022/08/10 07:52:32;;;;;;;;;4.50;4.50;;;;;40.01;18.94;101364.25;4977563;28;45412;-76
2022/08/10 07:55:01;;;;;;;;;7.25;6.25;;;;;40.03;18.95;101375.97;4985253;28;45947;-76
2022/08/10 07:57:29;;;;;;;;;7.25;6.00;;;;;40.00;18.93;101379.16;4986654;28;45481;-76
2022/08/10 08:00:00;;;;;;;;;9.75;7.00;;;;;40.20;18.74;101362.59;4990868;28;45422;-77
2022/08/10 08:02:53;;;;;;;;;6.25;6.25;;;;;40.29;18.72;101377.94;4986440;28;45496;-76
2022/08/10 08:05:21;;;;;;;;;9.00;6.00;;;;;40.23;19.50;101377.94;4971291;28;46309;-76
2022/08/10 08:07:48;;;;;;;;;5.50;5.50;;;;;40.23;19.31;101386.25;4984113;28;45384;-76
2022/08/10 08:10:16;;;;;;;;;4.00;4.00;;;;;40.43;18.63;101376.09;4990173;28;45535;-75
2022/08/10 08:12:44;;;;;;;;;7.00;7.00;;;;;40.58;18.65;101380.59;4986525;28;45410;-78
2022/08/10 08:15:15;;;;;;;;;7.50;7.50;;;;;40.61;18.93;101369.94;4987988;28;45534;-76
2022/08/10 08:17:41;;;;;;;;;6.25;6.25;;;;;40.48;18.99;101376.34;4991953;28;45319;-76
2022/08/10 08:20:08;;;;;;;;;5.00;5.00;;;;;40.73;18.75;101372.94;4990116;28;45377;-76
2022/08/10 08:22:35;;;;;;;;;7.00;6.50;;;;;40.61;18.01;101366.34;4986076;28;45436;-77
2022/08/10 08:25:03;;;;;;;;;4.25;4.00;;;;;40.67;17.85;101379.34;4977213;28;46202;-76
2022/08/10 08:27:28;;;;;;;;;5.50;5.50;;;;;40.75;18.51;101365.28;5005512;28;46013;-75
2022/08/10 08:29:55;;;;;;;;;5.00;4.50;;;;;41.14;18.59;101349.72;4981355;28;45592;-76
2022/08/10 08:32:22;;;;;;;;;6.50;6.00;;;;;41.12;17.93;101349.09;4985311;28;45752;-76
2022/08/10 08:34:53;;;;;;;;;6.00;6.00;;;;;41.17;18.00;101359.53;4980025;28;45619;-76
2022/08/10 08:37:21;;;;;;;;;7.00;7.00;;;;;41.15;18.03;101347.81;4981852;28;45575;-75
2022/08/10 08:39:47;;;;;;;;;6.25;6.25;;;;;41.17;18.15;101362.31;4980298;28;45685;-76
2022/08/10 08:42:33;;;;;;;;;7.00;7.00;;;;;41.52;18.40;101349.03;4983205;28;45432;-76
2022/08/10 08:45:21;;;;;;;;;7.50;6.25;;;;;41.75;18.61;101358.81;4981782;28;45525;-75
2022/08/10 08:48:08;;;;;;;;;4.00;4.00;;;;;41.98;17.70;101352.72;4982730;28;45564;-75
2022/08/10 08:50:49;;;;;;;;;8.00;6.00;;;;;41.89;17.99;101354.91;4980980;28;45428;-75
2022/08/10 08:53:27;;;;;;;;;6.75;6.75;;;;;41.92;17.10;101349.97;4982094;28;45443;-75
2022/08/10 08:56:06;;;;;;;;;6.50;6.50;;;;;41.80;17.51;101353.44;4980767;28;46510;-75
2022/08/10 08:59:18;;;;;;;;;7.75;5.00;;;;;41.86;16.81;101355.34;4982757;28;45462;-74
2022/08/10 09:02:00;;;;;;;;;5.75;5.75;;;;;42.11;17.06;101340.72;4975481;28;45458;-77
2022/08/10 09:04:51;;;;;;;;;4.75;4.75;;;;;42.40;16.54;101350.38;4975706;28;45558;-77
2022/08/10 09:07:50;;;;;;;;;5.75;5.25;;;;;42.21;16.65;101341.13;4980848;28;45493;-76
2022/08/10 09:10:29;;;;;;;;;4.00;4.00;;;;;42.14;16.39;101342.16;4984295;28;45639;-76
2022/08/10 09:13:17;;;;;;;;;7.50;7.50;;;;;41.97;16.89;101344.63;4981453;28;45562;-76
2022/08/10 09:16:02;;;;;;;;;7.25;6.00;;;;;42.14;17.73;101334.72;4980438;28;45420;-76
2022/08/10 09:18:38;;;;;;;;;5.75;5.75;;;;;42.43;16.49;101335.19;4980801;28;46253;-76
2022/08/10 09:21:46;;;;;;;;;6.00;6.00;;;;;42.40;16.60;101338.41;4978281;28;45528;-75
2022/08/10 09:24:17;;;;;;;;;7.00;6.00;;;;;42.20;16.53;101339.41;4919034;28;45363;-76
2022/08/10 09:26:50;;;;;;;;;5.50;5.50;;;;;42.29;16.67;101330.78;4920744;28;45709;-76
2022/08/10 09:29:25;;;;;;;;;6.00;6.00;;;;;42.42;16.56;101336.25;4918463;28;45353;-76
2022/08/10 09:32:09;;;;;;;;;6.75;4.75;;;;;42.16;15.91;101332.59;4925361;28;45557;-76
2022/08/10 09:34:48;;;;;;;;;7.25;7.25;;;;;42.23;16.73;101327.84;4923905;28;45389;-77
2022/08/10 09:37:28;;;;;;;;;7.00;7.00;;;;;42.25;16.91;101328.47;4920904;28;45438;-75
2022/08/10 09:39:58;;;;;;;;;6.25;6.25;;;;;42.32;16.60;101324.78;4915590;28;45520;-76
2022/08/10 09:42:51;;;;;;;;;5.75;5.75;;;;;42.50;16.24;101322.13;4913276;28;45443;-76
2022/08/10 09:45:37;;;;;;;;;6.25;6.25;;;;;42.45;16.02;101319.16;4915264;28;45496;-76
2022/08/10 09:48:14;;;;;;;;;5.00;5.00;;;;;42.48;16.26;101324.25;4920818;28;45528;-76
2022/08/10 09:50:58;;;;;;;;;8.50;7.75;;;;;42.37;16.07;101322.22;4919394;28;45522;-75
2022/08/10 09:53:32;;;;;;;;;7.00;7.00;;;;;42.59;16.30;101319.91;4913705;28;45470;-75
2022/08/10 09:56:16;;;;;;;;;7.25;6.75;;;;;42.60;15.61;101319.69;4917540;28;45453;-76
2022/08/10 09:59:00;;;;;;;;;7.50;7.50;;;;;42.52;16.00;101319.97;4964622;28;45465;-76
2022/08/10 10:01:44;;;;;;;;;6.00;6.00;;;;;42.77;16.24;101314.44;4982795;28;46179;-76
2022/08/10 10:04:24;;;;;;;;;8.00;7.00;;;;;42.81;16.02;101300.94;4992039;28;45579;-77
2022/08/10 10:07:04;;;;;;;;;4.25;3.25;;;;;42.75;15.83;101307.41;4981848;28;45481;-77
2022/08/10 10:09:41;;;;;;;;;8.00;8.00;;;;;42.70;16.25;101313.66;4979927;28;45431;-76
2022/08/10 10:12:35;;;;;;;;;6.25;6.25;;;;;42.59;15.18;101303.25;4981413;28;46995;-76
2022/08/10 10:15:19;;;;;;;;;5.00;5.00;;;;;42.56;15.73;101298.13;4986988;28;45398;-76
2022/08/10 10:18:16;;;;;;;;;5.50;4.25;;;;;42.50;15.92;101299.03;4992623;28;45526;-76
2022/08/10 10:21:19;;;;;;;;;7.00;7.00;;;;;42.47;15.52;101291.16;5003419;28;45615;-76
2022/08/10 10:23:56;;;;;;;;;8.00;5.75;;;;;42.37;16.58;101284.19;4995335;28;47232;-76
2022/08/10 10:26:58;;;;;;;;;6.50;6.50;;;;;42.29;15.94;101290.03;4980875;28;45486;-76
2022/08/10 10:29:34;;;;;;;;;7.25;7.25;;;;;42.10;15.73;101283.50;4990201;28;45653;-77
2022/08/10 10:32:20;;;;;;;;;8.25;8.25;;;;;41.90;15.52;101287.25;4980714;28;45671;-76
2022/08/10 10:35:04;;;;;;;;;10.25;8.75;;;;;42.06;16.15;101271.13;4975612;28;45454;-76
2022/08/10 10:37:32;;;;;;;;;6.00;6.00;;;;;42.24;16.04;101279.59;4975105;28;45399;-76
2022/08/10 10:40:00;;;;;;;;;7.25;7.25;;;;;42.31;15.07;101273.16;4982727;28;45343;-76
2022/08/10 10:42:41;;;;;;;;;8.50;8.50;;;;;42.03;15.20;101282.69;4979844;28;45437;-77
2022/08/10 10:45:15;;;;;;;;;7.00;7.00;;;;;41.84;15.49;101267.88;4976311;28;46394;-76
2022/08/10 10:48:15;;;;;;;;;5.75;4.50;;;;;41.68;15.53;101270.06;4981634;28;45471;-76
2022/08/10 10:51:11;;;;;;;;;4.50;4.50;;;;;41.70;14.87;101272.63;4987717;28;45476;-77
2022/08/10 10:54:02;;;;;;;;;7.00;7.00;;;;;41.54;15.69;101262.84;4981925;28;45596;-76
2022/08/10 10:56:42;;;;;;;;;7.00;7.00;;;;;41.57;14.89;101261.56;4984983;28;46513;-76
2022/08/10 10:59:25;;;;;;;;;7.50;7.50;;;;;41.89;15.34;101260.59;4987587;28;45554;-77
2022/08/10 11:02:21;;;;;;;;;5.00;5.00;;;;;41.70;15.33;101259.59;5004506;28;45503;-77
2022/08/10 11:05:06;;;;;;;;;7.25;5.75;;;;;41.47;14.57;101248.16;4986097;28;45503;-77
2022/08/10 11:07:43;;;;;;;;;7.50;7.00;;;;;41.59;14.78;101243.66;4977062;28;47110;-77
2022/08/10 11:10:14;;;;;;;;;5.25;4.25;;;;;41.60;14.59;101250.03;4993460;28;45447;-76
2022/08/10 11:12:48;;;;;;;;;5.75;5.75;;;;;41.42;15.35;101239.69;4977973;28;45626;-78
2022/08/10 11:15:23;;;;;;;;;8.00;6.75;;;;;41.31;15.12;101241.22;4982529;28;45391;-76
2022/08/10 11:17:55;;;;;;;;;6.00;5.00;;;;;40.88;14.23;101273.06;4979243;28;46188;-75
2022/08/10 11:20:36;;;;;;;;;6.75;6.75;;;;;40.35;13.92;101237.88;4994347;28;45531;-79
2022/08/10 11:23:10;;;;;;;;;5.25;5.25;;;;;39.99;15.17;101244.66;4976029;28;45510;-76
2022/08/10 11:25:40;;;;;;;;;4.75;4.00;;;;;39.82;14.43;101233.09;4981697;28;45576;-76
2022/08/10 11:28:27;;;;;;;;;6.25;6.25;;;;;39.96;15.02;101232.03;4984328;28;46616;-75
2022/08/10 11:31:04;;;;;;;;;5.50;5.50;;;;;39.87;15.38;101235.22;4984544;28;45460;-76
2022/08/10 11:33:55;;;;;;;;;4.00;4.00;;;;;39.99;15.79;101219.75;4975012;28;45711;-76
2022/08/10 11:36:30;;;;;;;;;7.75;5.75;;;;;40.39;15.75;101217.03;4975974;28;45488;-78
2022/08/10 11:39:09;;;;;;;;;7.25;7.25;;;;;40.43;15.81;101207.25;4991411;28;46051;-77
2022/08/10 11:41:49;;;;;;;;;5.00;5.00;;;;;40.47;15.37;101219.59;4993285;28;45550;-77
2022/08/10 11:44:29;;;;;;;;;6.00;5.75;;;;;39.95;15.29;101226.72;4989981;28;45600;-76
2022/08/10 11:47:16;;;;;;;;;6.00;5.25;;;;;39.65;15.99;101210.50;4980346;28;45612;-74
2022/08/10 11:49:57;;;;;;;;;7.00;7.00;;;;;39.29;15.79;101210.78;4988264;28;46268;-77
2022/08/10 11:52:38;;;;;;;;;6.50;6.50;;;;;39.21;15.73;101214.56;4982824;28;45430;-76